sensor_id;sensor_type;location;lat;lon;timestamp;temperature;humidity
19847;DHT22;10084;50.518;8.588;2022-10-16T00:01:37;15.30;92.30
19847;DHT22;10084;50.518;8.588;2022-10-16T00:04:03;15.30;92.20
19847;DHT22;10084;50.518;8.588;2022-10-16T00:06:30;15.30;92.10
19847;DHT22;10084;50.518;8.588;2022-10-16T00:08:57;15.30;92.10
19847;DHT22;10084;50.518;8.588;2022-10-16T00:11:24;15.30;92.10
19847;DHT22;10084;50.518;8.588;2022-10-16T00:13:52;15.40;92.20
19847;DHT22;10084;50.518;8.588;2022-10-16T00:16:20;15.40;92.20
19847;DHT22;10084;50.518;8.588;2022-10-16T00:18:46;15.40;92.20
19847;DHT22;10084;50.518;8.588;2022-10-16T00:21:14;15.40;92.20
19847;DHT22;10084;50.518;8.588;2022-10-16T00:24:01;15.40;92.30
19847;DHT22;10084;50.518;8.588;2022-10-16T00:26:29;15.40;92.30
19847;DHT22;10084;50.518;8.588;2022-10-16T00:28:55;15.40;92.30
19847;DHT22;10084;50.518;8.588;2022-10-16T00:31:22;15.40;92.30
19847;DHT22;10084;50.518;8.588;2022-10-16T00:33:48;15.50;92.70
19847;DHT22;10084;50.518;8.588;2022-10-16T00:36:17;15.40;92.40
19847;DHT22;10084;50.518;8.588;2022-10-16T00:38:43;15.40;92.40
19847;DHT22;10084;50.518;8.588;2022-10-16T00:41:15;15.50;92.40
19847;DHT22;10084;50.518;8.588;2022-10-16T00:43:46;15.50;92.40
19847;DHT22;10084;50.518;8.588;2022-10-16T00:46:33;15.50;92.40
19847;DHT22;10084;50.518;8.588;2022-10-16T00:49:14;15.50;92.50
19847;DHT22;10084;50.518;8.588;2022-10-16T00:51:52;15.50;92.50
19847;DHT22;10084;50.518;8.588;2022-10-16T00:54:24;15.50;92.40
19847;DHT22;10084;50.518;8.588;2022-10-16T00:56:51;15.40;92.40
19847;DHT22;10084;50.518;8.588;2022-10-16T01:01:46;15.40;92.40
19847;DHT22;10084;50.518;8.588;2022-10-16T01:04:12;15.40;92.40
19847;DHT22;10084;50.518;8.588;2022-10-16T01:09:19;15.40;92.40
19847;DHT22;10084;50.518;8.588;2022-10-16T01:12:09;15.30;92.40
19847;DHT22;10084;50.518;8.588;2022-10-16T01:17:18;15.30;92.30
19847;DHT22;10084;50.518;8.588;2022-10-16T01:22:25;15.20;92.30
19847;DHT22;10084;50.518;8.588;2022-10-16T01:24:55;15.20;92.30
19847;DHT22;10084;50.518;8.588;2022-10-16T01:27:30;15.10;92.40
19847;DHT22;10084;50.518;8.588;2022-10-16T01:30:07;15.10;92.40
19847;DHT22;10084;50.518;8.588;2022-10-16T01:32:42;15.10;92.50
19847;DHT22;10084;50.518;8.588;2022-10-16T01:35:19;15.10;92.50
19847;DHT22;10084;50.518;8.588;2022-10-16T01:37:59;15.00;92.40
19847;DHT22;10084;50.518;8.588;2022-10-16T01:40:26;14.90;92.40
19847;DHT22;10084;50.518;8.588;2022-10-16T01:42:57;14.90;92.50
19847;DHT22;10084;50.518;8.588;2022-10-16T01:45:24;14.90;92.50
19847;DHT22;10084;50.518;8.588;2022-10-16T01:47:50;14.80;92.50
19847;DHT22;10084;50.518;8.588;2022-10-16T01:50:19;14.80;92.40
19847;DHT22;10084;50.518;8.588;2022-10-16T01:52:48;14.70;92.40
19847;DHT22;10084;50.518;8.588;2022-10-16T01:55:22;14.60;92.50
19847;DHT22;10084;50.518;8.588;2022-10-16T01:57:50;14.60;92.60
19847;DHT22;10084;50.518;8.588;2022-10-16T02:00:19;14.50;92.70
19847;DHT22;10084;50.518;8.588;2022-10-16T02:02:48;14.50;92.80
19847;DHT22;10084;50.518;8.588;2022-10-16T02:05:50;14.50;93.00
19847;DHT22;10084;50.518;8.588;2022-10-16T02:08:17;14.40;93.10
19847;DHT22;10084;50.518;8.588;2022-10-16T02:10:43;14.50;93.10
19847;DHT22;10084;50.518;8.588;2022-10-16T02:13:12;14.40;93.10
19847;DHT22;10084;50.518;8.588;2022-10-16T02:15:39;14.40;93.20
19847;DHT22;10084;50.518;8.588;2022-10-16T02:18:05;14.40;93.20
19847;DHT22;10084;50.518;8.588;2022-10-16T02:20:40;14.40;93.20
19847;DHT22;10084;50.518;8.588;2022-10-16T02:23:12;14.40;93.30
19847;DHT22;10084;50.518;8.588;2022-10-16T02:25:44;14.40;93.30
19847;DHT22;10084;50.518;8.588;2022-10-16T02:28:19;14.40;93.30
19847;DHT22;10084;50.518;8.588;2022-10-16T02:33:14;14.40;93.10
19847;DHT22;10084;50.518;8.588;2022-10-16T02:35:42;14.40;93.40
19847;DHT22;10084;50.518;8.588;2022-10-16T02:38:09;14.40;93.40
19847;DHT22;10084;50.518;8.588;2022-10-16T02:40:36;14.40;93.40
19847;DHT22;10084;50.518;8.588;2022-10-16T02:43:03;14.40;93.50
19847;DHT22;10084;50.518;8.588;2022-10-16T02:45:29;14.40;93.50
19847;DHT22;10084;50.518;8.588;2022-10-16T02:47:55;14.40;93.40
19847;DHT22;10084;50.518;8.588;2022-10-16T02:50:21;14.30;93.30
19847;DHT22;10084;50.518;8.588;2022-10-16T02:52:47;14.30;93.50
19847;DHT22;10084;50.518;8.588;2022-10-16T02:55:13;14.30;93.50
19847;DHT22;10084;50.518;8.588;2022-10-16T02:57:39;14.30;93.70
19847;DHT22;10084;50.518;8.588;2022-10-16T03:00:09;14.30;93.80
19847;DHT22;10084;50.518;8.588;2022-10-16T03:02:37;14.40;93.80
19847;DHT22;10084;50.518;8.588;2022-10-16T03:05:02;14.40;93.90
19847;DHT22;10084;50.518;8.588;2022-10-16T03:07:28;14.40;93.80
19847;DHT22;10084;50.518;8.588;2022-10-16T03:09:54;14.40;93.80
19847;DHT22;10084;50.518;8.588;2022-10-16T03:12:21;14.50;93.90
19847;DHT22;10084;50.518;8.588;2022-10-16T03:14:47;14.50;94.00
19847;DHT22;10084;50.518;8.588;2022-10-16T03:17:13;14.50;94.00
19847;DHT22;10084;50.518;8.588;2022-10-16T03:19:39;14.60;94.10
19847;DHT22;10084;50.518;8.588;2022-10-16T03:22:04;14.60;94.00
19847;DHT22;10084;50.518;8.588;2022-10-16T03:24:30;14.60;93.90
19847;DHT22;10084;50.518;8.588;2022-10-16T03:26:56;14.60;93.80
19847;DHT22;10084;50.518;8.588;2022-10-16T03:29:21;14.60;93.80
19847;DHT22;10084;50.518;8.588;2022-10-16T03:31:47;14.60;93.80
19847;DHT22;10084;50.518;8.588;2022-10-16T03:34:15;14.60;93.90
19847;DHT22;10084;50.518;8.588;2022-10-16T03:36:40;14.60;94.10
19847;DHT22;10084;50.518;8.588;2022-10-16T03:39:06;14.60;94.30
19847;DHT22;10084;50.518;8.588;2022-10-16T03:41:32;14.70;94.50
19847;DHT22;10084;50.518;8.588;2022-10-16T03:43:57;14.70;94.70
19847;DHT22;10084;50.518;8.588;2022-10-16T03:46:23;14.80;94.70
19847;DHT22;10084;50.518;8.588;2022-10-16T03:48:49;14.90;94.70
19847;DHT22;10084;50.518;8.588;2022-10-16T03:51:14;14.90;94.70
19847;DHT22;10084;50.518;8.588;2022-10-16T03:53:40;15.00;94.50
19847;DHT22;10084;50.518;8.588;2022-10-16T03:56:06;15.10;94.50
19847;DHT22;10084;50.518;8.588;2022-10-16T03:58:32;15.10;94.40
19847;DHT22;10084;50.518;8.588;2022-10-16T04:00:57;15.10;94.30
19847;DHT22;10084;50.518;8.588;2022-10-16T04:03:23;15.20;94.20
19847;DHT22;10084;50.518;8.588;2022-10-16T04:05:49;15.20;94.20
19847;DHT22;10084;50.518;8.588;2022-10-16T04:08:16;15.20;94.20
19847;DHT22;10084;50.518;8.588;2022-10-16T04:10:45;15.20;94.20
19847;DHT22;10084;50.518;8.588;2022-10-16T04:13:11;15.20;94.20
19847;DHT22;10084;50.518;8.588;2022-10-16T04:15:37;15.20;94.20
19847;DHT22;10084;50.518;8.588;2022-10-16T04:18:03;15.20;94.20
19847;DHT22;10084;50.518;8.588;2022-10-16T04:20:29;15.20;94.20
19847;DHT22;10084;50.518;8.588;2022-10-16T04:22:55;15.20;94.20
19847;DHT22;10084;50.518;8.588;2022-10-16T04:25:21;15.20;94.20
19847;DHT22;10084;50.518;8.588;2022-10-16T04:27:47;15.20;94.20
19847;DHT22;10084;50.518;8.588;2022-10-16T04:30:13;15.20;94.20
19847;DHT22;10084;50.518;8.588;2022-10-16T04:32:40;15.30;94.20
19847;DHT22;10084;50.518;8.588;2022-10-16T04:35:07;15.20;94.10
19847;DHT22;10084;50.518;8.588;2022-10-16T04:37:33;15.20;94.00
19847;DHT22;10084;50.518;8.588;2022-10-16T04:39:59;15.20;94.00
19847;DHT22;10084;50.518;8.588;2022-10-16T04:42:24;15.20;94.00
19847;DHT22;10084;50.518;8.588;2022-10-16T04:44:50;15.20;94.00
19847;DHT22;10084;50.518;8.588;2022-10-16T04:47:16;15.20;94.00
19847;DHT22;10084;50.518;8.588;2022-10-16T04:49:41;15.20;94.10
19847;DHT22;10084;50.518;8.588;2022-10-16T04:52:07;15.20;94.00
19847;DHT22;10084;50.518;8.588;2022-10-16T04:54:35;15.20;94.10
19847;DHT22;10084;50.518;8.588;2022-10-16T04:57:00;15.20;94.10
19847;DHT22;10084;50.518;8.588;2022-10-16T04:59:26;15.20;94.10
19847;DHT22;10084;50.518;8.588;2022-10-16T05:01:51;15.20;94.00
19847;DHT22;10084;50.518;8.588;2022-10-16T05:04:17;15.20;94.10
19847;DHT22;10084;50.518;8.588;2022-10-16T05:06:43;15.20;94.00
19847;DHT22;10084;50.518;8.588;2022-10-16T05:09:09;15.20;94.10
19847;DHT22;10084;50.518;8.588;2022-10-16T05:11:35;15.20;94.10
19847;DHT22;10084;50.518;8.588;2022-10-16T05:14:01;15.20;94.10
19847;DHT22;10084;50.518;8.588;2022-10-16T05:16:26;15.20;94.10
19847;DHT22;10084;50.518;8.588;2022-10-16T05:18:53;15.20;94.10
19847;DHT22;10084;50.518;8.588;2022-10-16T05:21:19;15.20;94.10
19847;DHT22;10084;50.518;8.588;2022-10-16T05:23:45;15.20;94.00
19847;DHT22;10084;50.518;8.588;2022-10-16T05:26:10;15.20;93.90
19847;DHT22;10084;50.518;8.588;2022-10-16T05:28:36;15.10;93.70
19847;DHT22;10084;50.518;8.588;2022-10-16T05:31:09;15.10;93.60
19847;DHT22;10084;50.518;8.588;2022-10-16T05:33:35;15.00;93.70
19847;DHT22;10084;50.518;8.588;2022-10-16T05:36:06;15.00;93.90
19847;DHT22;10084;50.518;8.588;2022-10-16T05:38:33;15.00;94.10
19847;DHT22;10084;50.518;8.588;2022-10-16T05:40:59;15.00;94.20
19847;DHT22;10084;50.518;8.588;2022-10-16T05:43:27;14.90;94.30
19847;DHT22;10084;50.518;8.588;2022-10-16T05:46:00;15.00;94.40
19847;DHT22;10084;50.518;8.588;2022-10-16T05:48:27;15.00;94.40
19847;DHT22;10084;50.518;8.588;2022-10-16T05:51:00;15.00;94.40
19847;DHT22;10084;50.518;8.588;2022-10-16T05:53:27;15.00;94.40
19847;DHT22;10084;50.518;8.588;2022-10-16T05:55:54;15.00;94.40
19847;DHT22;10084;50.518;8.588;2022-10-16T05:58:20;14.90;94.40
19847;DHT22;10084;50.518;8.588;2022-10-16T06:00:56;15.00;94.40
19847;DHT22;10084;50.518;8.588;2022-10-16T06:03:22;14.90;94.50
19847;DHT22;10084;50.518;8.588;2022-10-16T06:05:48;15.00;94.50
19847;DHT22;10084;50.518;8.588;2022-10-16T06:08:14;15.00;94.50
19847;DHT22;10084;50.518;8.588;2022-10-16T06:10:40;14.90;94.40
19847;DHT22;10084;50.518;8.588;2022-10-16T06:13:05;14.90;94.30
19847;DHT22;10084;50.518;8.588;2022-10-16T06:15:31;14.90;94.30
19847;DHT22;10084;50.518;8.588;2022-10-16T06:17:57;14.90;94.40
19847;DHT22;10084;50.518;8.588;2022-10-16T06:20:23;14.90;94.60
19847;DHT22;10084;50.518;8.588;2022-10-16T06:22:48;14.90;94.80
19847;DHT22;10084;50.518;8.588;2022-10-16T06:25:14;14.90;94.90
19847;DHT22;10084;50.518;8.588;2022-10-16T06:27:40;15.00;95.00
19847;DHT22;10084;50.518;8.588;2022-10-16T06:30:06;15.00;95.00
19847;DHT22;10084;50.518;8.588;2022-10-16T06:32:32;15.10;95.00
19847;DHT22;10084;50.518;8.588;2022-10-16T06:34:58;15.10;95.10
19847;DHT22;10084;50.518;8.588;2022-10-16T06:37:24;15.20;95.10
19847;DHT22;10084;50.518;8.588;2022-10-16T06:39:50;15.20;95.10
19847;DHT22;10084;50.518;8.588;2022-10-16T06:42:18;15.20;95.10
19847;DHT22;10084;50.518;8.588;2022-10-16T06:44:44;15.30;95.00
19847;DHT22;10084;50.518;8.588;2022-10-16T06:47:10;15.30;95.00
19847;DHT22;10084;50.518;8.588;2022-10-16T06:49:36;15.40;94.90
19847;DHT22;10084;50.518;8.588;2022-10-16T06:52:02;15.40;94.90
19847;DHT22;10084;50.518;8.588;2022-10-16T06:54:28;15.40;94.90
19847;DHT22;10084;50.518;8.588;2022-10-16T06:56:54;15.40;94.90
19847;DHT22;10084;50.518;8.588;2022-10-16T06:59:20;15.50;94.80
19847;DHT22;10084;50.518;8.588;2022-10-16T07:01:46;15.50;94.90
19847;DHT22;10084;50.518;8.588;2022-10-16T07:04:12;15.50;94.80
19847;DHT22;10084;50.518;8.588;2022-10-16T07:06:38;15.50;94.70
19847;DHT22;10084;50.518;8.588;2022-10-16T07:09:06;15.50;94.60
19847;DHT22;10084;50.518;8.588;2022-10-16T07:11:33;15.50;94.60
19847;DHT22;10084;50.518;8.588;2022-10-16T07:13:59;15.50;94.70
19847;DHT22;10084;50.518;8.588;2022-10-16T07:16:29;15.40;94.90
19847;DHT22;10084;50.518;8.588;2022-10-16T07:18:56;15.50;95.10
19847;DHT22;10084;50.518;8.588;2022-10-16T07:21:27;15.50;95.30
19847;DHT22;10084;50.518;8.588;2022-10-16T07:23:59;15.50;95.50
19847;DHT22;10084;50.518;8.588;2022-10-16T07:26:27;15.60;95.70
19847;DHT22;10084;50.518;8.588;2022-10-16T07:28:53;15.70;95.70
19847;DHT22;10084;50.518;8.588;2022-10-16T07:31:20;15.80;95.70
19847;DHT22;10084;50.518;8.588;2022-10-16T07:33:47;15.90;95.50
19847;DHT22;10084;50.518;8.588;2022-10-16T07:36:15;15.90;96.60
19847;DHT22;10084;50.518;8.588;2022-10-16T07:38:41;16.00;95.50
19847;DHT22;10084;50.518;8.588;2022-10-16T07:41:10;16.00;95.50
19847;DHT22;10084;50.518;8.588;2022-10-16T07:43:36;16.00;95.30
19847;DHT22;10084;50.518;8.588;2022-10-16T07:46:02;16.00;95.30
19847;DHT22;10084;50.518;8.588;2022-10-16T07:48:30;16.10;95.30
19847;DHT22;10084;50.518;8.588;2022-10-16T07:51:00;16.10;95.40
19847;DHT22;10084;50.518;8.588;2022-10-16T07:53:26;16.20;95.50
19847;DHT22;10084;50.518;8.588;2022-10-16T07:55:54;16.20;95.60
19847;DHT22;10084;50.518;8.588;2022-10-16T07:58:22;16.30;95.70
19847;DHT22;10084;50.518;8.588;2022-10-16T08:00:47;16.30;95.80
19847;DHT22;10084;50.518;8.588;2022-10-16T08:03:13;16.40;95.80
19847;DHT22;10084;50.518;8.588;2022-10-16T08:05:39;16.50;95.60
19847;DHT22;10084;50.518;8.588;2022-10-16T08:08:04;16.60;95.30
19847;DHT22;10084;50.518;8.588;2022-10-16T08:10:30;16.60;95.20
19847;DHT22;10084;50.518;8.588;2022-10-16T08:12:57;16.70;95.40
19847;DHT22;10084;50.518;8.588;2022-10-16T08:15:24;16.70;95.40
19847;DHT22;10084;50.518;8.588;2022-10-16T08:18:01;16.70;95.40
19847;DHT22;10084;50.518;8.588;2022-10-16T08:20:28;16.80;95.60
19847;DHT22;10084;50.518;8.588;2022-10-16T08:22:54;16.90;95.70
19847;DHT22;10084;50.518;8.588;2022-10-16T08:25:20;16.90;95.80
19847;DHT22;10084;50.518;8.588;2022-10-16T08:27:46;17.00;95.80
19847;DHT22;10084;50.518;8.588;2022-10-16T08:30:13;17.10;95.90
19847;DHT22;10084;50.518;8.588;2022-10-16T08:32:39;17.20;95.90
19847;DHT22;10084;50.518;8.588;2022-10-16T08:35:05;17.30;96.00
19847;DHT22;10084;50.518;8.588;2022-10-16T08:37:31;17.40;96.10
19847;DHT22;10084;50.518;8.588;2022-10-16T08:39:57;17.60;96.10
19847;DHT22;10084;50.518;8.588;2022-10-16T08:45:43;17.80;95.70
19847;DHT22;10084;50.518;8.588;2022-10-16T08:48:26;18.00;95.60
19847;DHT22;10084;50.518;8.588;2022-10-16T08:50:54;18.10;95.30
19847;DHT22;10084;50.518;8.588;2022-10-16T08:53:31;18.10;95.10
19847;DHT22;10084;50.518;8.588;2022-10-16T08:55:59;18.30;95.40
19847;DHT22;10084;50.518;8.588;2022-10-16T08:58:29;18.40;95.40
19847;DHT22;10084;50.518;8.588;2022-10-16T09:01:01;18.50;95.40
19847;DHT22;10084;50.518;8.588;2022-10-16T09:03:46;18.80;95.60
19847;DHT22;10084;50.518;8.588;2022-10-16T09:09:24;19.20;95.40
19847;DHT22;10084;50.518;8.588;2022-10-16T09:12:00;19.50;95.40
19847;DHT22;10084;50.518;8.588;2022-10-16T09:15:01;19.80;96.10
19847;DHT22;10084;50.518;8.588;2022-10-16T09:20:49;21.20;96.50
19847;DHT22;10084;50.518;8.588;2022-10-16T09:23:25;21.90;95.50
19847;DHT22;10084;50.518;8.588;2022-10-16T09:25:53;22.50;94.80
19847;DHT22;10084;50.518;8.588;2022-10-16T09:28:20;23.00;93.50
19847;DHT22;10084;50.518;8.588;2022-10-16T09:30:47;23.30;92.50
19847;DHT22;10084;50.518;8.588;2022-10-16T09:33:16;23.40;91.20
19847;DHT22;10084;50.518;8.588;2022-10-16T09:35:44;23.30;90.40
19847;DHT22;10084;50.518;8.588;2022-10-16T09:38:22;23.30;90.70
19847;DHT22;10084;50.518;8.588;2022-10-16T09:40:48;23.40;90.60
19847;DHT22;10084;50.518;8.588;2022-10-16T09:43:39;23.40;89.60
19847;DHT22;10084;50.518;8.588;2022-10-16T09:46:28;23.30;88.00
19847;DHT22;10084;50.518;8.588;2022-10-16T09:49:00;23.30;88.70
19847;DHT22;10084;50.518;8.588;2022-10-16T09:54:02;23.60;88.00
19847;DHT22;10084;50.518;8.588;2022-10-16T09:56:38;23.70;88.40
19847;DHT22;10084;50.518;8.588;2022-10-16T09:59:15;24.10;88.30
19847;DHT22;10084;50.518;8.588;2022-10-16T10:01:44;24.40;86.10
19847;DHT22;10084;50.518;8.588;2022-10-16T10:04:10;24.50;84.40
19847;DHT22;10084;50.518;8.588;2022-10-16T10:06:48;24.40;83.40
19847;DHT22;10084;50.518;8.588;2022-10-16T10:09:26;24.20;82.70
19847;DHT22;10084;50.518;8.588;2022-10-16T10:12:00;24.00;82.90
19847;DHT22;10084;50.518;8.588;2022-10-16T10:14:49;23.80;82.80
19847;DHT22;10084;50.518;8.588;2022-10-16T10:17:18;23.60;82.90
19847;DHT22;10084;50.518;8.588;2022-10-16T10:33:46;27.50;79.30
19847;DHT22;10084;50.518;8.588;2022-10-16T10:38:59;29.10;76.90
19847;DHT22;10084;50.518;8.588;2022-10-16T10:44:40;31.00;75.00
19847;DHT22;10084;50.518;8.588;2022-10-16T10:47:31;31.60;74.20
19847;DHT22;10084;50.518;8.588;2022-10-16T10:50:24;32.60;73.00
19847;DHT22;10084;50.518;8.588;2022-10-16T10:55:43;33.00;71.10
19847;DHT22;10084;50.518;8.588;2022-10-16T10:58:36;33.00;69.90
19847;DHT22;10084;50.518;8.588;2022-10-16T11:01:26;32.70;69.30
19847;DHT22;10084;50.518;8.588;2022-10-16T11:06:51;32.30;68.90
19847;DHT22;10084;50.518;8.588;2022-10-16T11:09:24;32.30;69.00
19847;DHT22;10084;50.518;8.588;2022-10-16T11:12:06;32.40;67.90
19847;DHT22;10084;50.518;8.588;2022-10-16T11:14:49;33.00;66.90
19847;DHT22;10084;50.518;8.588;2022-10-16T11:17:23;33.10;64.60
19847;DHT22;10084;50.518;8.588;2022-10-16T11:19:56;33.10;64.00
19847;DHT22;10084;50.518;8.588;2022-10-16T11:22:33;33.40;62.50
19847;DHT22;10084;50.518;8.588;2022-10-16T11:27:57;34.60;59.90
19847;DHT22;10084;50.518;8.588;2022-10-16T11:30:27;35.40;58.00
19847;DHT22;10084;50.518;8.588;2022-10-16T11:35:55;36.80;52.10
19847;DHT22;10084;50.518;8.588;2022-10-16T11:41:13;36.10;53.00
19847;DHT22;10084;50.518;8.588;2022-10-16T11:43:43;35.50;53.20
19847;DHT22;10084;50.518;8.588;2022-10-16T11:46:19;35.60;53.40
19847;DHT22;10084;50.518;8.588;2022-10-16T11:49:09;36.20;52.50
19847;DHT22;10084;50.518;8.588;2022-10-16T11:51:48;37.00;50.90
19847;DHT22;10084;50.518;8.588;2022-10-16T11:54:26;37.70;50.20
19847;DHT22;10084;50.518;8.588;2022-10-16T11:56:59;38.00;49.20
19847;DHT22;10084;50.518;8.588;2022-10-16T11:59:29;38.50;46.90
19847;DHT22;10084;50.518;8.588;2022-10-16T12:02:27;38.70;48.00
19847;DHT22;10084;50.518;8.588;2022-10-16T12:05:28;38.70;47.30
19847;DHT22;10084;50.518;8.588;2022-10-16T12:08:16;38.40;47.10
19847;DHT22;10084;50.518;8.588;2022-10-16T12:10:45;38.70;46.60
19847;DHT22;10084;50.518;8.588;2022-10-16T12:13:30;38.90;46.70
19847;DHT22;10084;50.518;8.588;2022-10-16T12:18:31;38.60;45.70
19847;DHT22;10084;50.518;8.588;2022-10-16T12:20:58;38.00;46.00
19847;DHT22;10084;50.518;8.588;2022-10-16T12:23:26;37.10;45.90
19847;DHT22;10084;50.518;8.588;2022-10-16T12:25:59;35.50;46.00
19847;DHT22;10084;50.518;8.588;2022-10-16T12:28:30;34.10;48.10
19847;DHT22;10084;50.518;8.588;2022-10-16T12:31:02;33.00;49.50
19847;DHT22;10084;50.518;8.588;2022-10-16T12:33:37;32.00;50.30
19847;DHT22;10084;50.518;8.588;2022-10-16T12:36:13;31.00;51.20
19847;DHT22;10084;50.518;8.588;2022-10-16T12:41:11;29.40;53.00
19847;DHT22;10084;50.518;8.588;2022-10-16T12:43:43;29.00;53.30
19847;DHT22;10084;50.518;8.588;2022-10-16T12:48:35;29.40;52.80
19847;DHT22;10084;50.518;8.588;2022-10-16T12:51:25;30.00;51.80
19847;DHT22;10084;50.518;8.588;2022-10-16T12:56:52;31.60;49.50
19847;DHT22;10084;50.518;8.588;2022-10-16T12:59:32;32.50;48.20
19847;DHT22;10084;50.518;8.588;2022-10-16T13:08:13;32.60;46.90
19847;DHT22;10084;50.518;8.588;2022-10-16T13:10:56;31.90;48.30
19847;DHT22;10084;50.518;8.588;2022-10-16T13:16:37;30.00;50.00
19847;DHT22;10084;50.518;8.588;2022-10-16T13:19:21;29.00;51.40
19847;DHT22;10084;50.518;8.588;2022-10-16T13:24:42;27.80;52.50
19847;DHT22;10084;50.518;8.588;2022-10-16T13:27:35;27.30;53.80
19847;DHT22;10084;50.518;8.588;2022-10-16T13:30:19;26.90;54.40
19847;DHT22;10084;50.518;8.588;2022-10-16T13:33:15;26.60;54.90
19847;DHT22;10084;50.518;8.588;2022-10-16T13:35:51;26.30;54.90
19847;DHT22;10084;50.518;8.588;2022-10-16T13:38:20;26.10;55.20
19847;DHT22;10084;50.518;8.588;2022-10-16T13:40:58;25.80;55.30
19847;DHT22;10084;50.518;8.588;2022-10-16T13:46:01;25.50;55.10
19847;DHT22;10084;50.518;8.588;2022-10-16T13:48:31;25.30;55.60
19847;DHT22;10084;50.518;8.588;2022-10-16T13:51:01;25.00;55.10
19847;DHT22;10084;50.518;8.588;2022-10-16T13:53:30;24.90;56.00
19847;DHT22;10084;50.518;8.588;2022-10-16T13:55:56;24.70;56.20
19847;DHT22;10084;50.518;8.588;2022-10-16T13:58:22;24.50;56.50
19847;DHT22;10084;50.518;8.588;2022-10-16T14:01:00;24.40;56.60
19847;DHT22;10084;50.518;8.588;2022-10-16T14:03:27;24.30;56.70
19847;DHT22;10084;50.518;8.588;2022-10-16T14:05:55;24.20;56.80
19847;DHT22;10084;50.518;8.588;2022-10-16T14:08:26;24.10;56.90
19847;DHT22;10084;50.518;8.588;2022-10-16T14:10:54;24.00;57.20
19847;DHT22;10084;50.518;8.588;2022-10-16T14:15:55;24.00;56.70
19847;DHT22;10084;50.518;8.588;2022-10-16T14:18:25;24.00;57.30
19847;DHT22;10084;50.518;8.588;2022-10-16T14:20:52;24.00;57.40
19847;DHT22;10084;50.518;8.588;2022-10-16T14:23:36;23.80;57.30
19847;DHT22;10084;50.518;8.588;2022-10-16T14:28:35;23.50;58.00
19847;DHT22;10084;50.518;8.588;2022-10-16T14:31:02;23.50;58.10
19847;DHT22;10084;50.518;8.588;2022-10-16T14:38:39;23.20;58.40
19847;DHT22;10084;50.518;8.588;2022-10-16T14:41:06;23.10;58.70
19847;DHT22;10084;50.518;8.588;2022-10-16T14:46:00;23.00;59.00
19847;DHT22;10084;50.518;8.588;2022-10-16T14:48:27;22.90;59.00
19847;DHT22;10084;50.518;8.588;2022-10-16T14:50:53;22.90;59.10
19847;DHT22;10084;50.518;8.588;2022-10-16T14:53:19;22.80;59.20
19847;DHT22;10084;50.518;8.588;2022-10-16T14:55:44;22.80;59.20
19847;DHT22;10084;50.518;8.588;2022-10-16T14:58:16;22.60;59.40
19847;DHT22;10084;50.518;8.588;2022-10-16T15:00:43;22.50;59.60
19847;DHT22;10084;50.518;8.588;2022-10-16T15:03:08;22.40;59.90
19847;DHT22;10084;50.518;8.588;2022-10-16T15:05:34;22.20;60.10
19847;DHT22;10084;50.518;8.588;2022-10-16T15:08:00;22.10;60.40
19847;DHT22;10084;50.518;8.588;2022-10-16T15:10:27;22.00;60.70
19847;DHT22;10084;50.518;8.588;2022-10-16T15:12:54;21.90;60.90
19847;DHT22;10084;50.518;8.588;2022-10-16T15:17:52;21.80;61.40
19847;DHT22;10084;50.518;8.588;2022-10-16T15:20:21;21.70;61.50
19847;DHT22;10084;50.518;8.588;2022-10-16T15:22:46;21.60;61.60
19847;DHT22;10084;50.518;8.588;2022-10-16T15:27:51;21.40;62.00
19847;DHT22;10084;50.518;8.588;2022-10-16T15:30:17;21.40;62.20
19847;DHT22;10084;50.518;8.588;2022-10-16T15:32:42;21.30;62.20
19847;DHT22;10084;50.518;8.588;2022-10-16T15:35:09;21.30;62.50
19847;DHT22;10084;50.518;8.588;2022-10-16T15:37:34;21.30;63.20
19847;DHT22;10084;50.518;8.588;2022-10-16T15:40:00;21.20;62.70
19847;DHT22;10084;50.518;8.588;2022-10-16T15:42:26;21.10;62.90
19847;DHT22;10084;50.518;8.588;2022-10-16T15:44:52;21.00;63.10
19847;DHT22;10084;50.518;8.588;2022-10-16T15:47:17;20.90;63.40
19847;DHT22;10084;50.518;8.588;2022-10-16T15:49:43;20.80;63.50
19847;DHT22;10084;50.518;8.588;2022-10-16T15:52:09;20.70;63.60
19847;DHT22;10084;50.518;8.588;2022-10-16T15:54:35;20.60;63.80
19847;DHT22;10084;50.518;8.588;2022-10-16T15:57:01;20.50;64.10
19847;DHT22;10084;50.518;8.588;2022-10-16T15:59:26;20.30;64.30
19847;DHT22;10084;50.518;8.588;2022-10-16T16:01:52;20.20;64.60
19847;DHT22;10084;50.518;8.588;2022-10-16T16:04:18;20.00;64.90
19847;DHT22;10084;50.518;8.588;2022-10-16T16:06:44;19.90;65.20
19847;DHT22;10084;50.518;8.588;2022-10-16T16:09:11;19.80;66.20
19847;DHT22;10084;50.518;8.588;2022-10-16T16:11:37;19.70;65.70
19847;DHT22;10084;50.518;8.588;2022-10-16T16:14:05;19.50;65.90
19847;DHT22;10084;50.518;8.588;2022-10-16T16:16:31;19.50;66.20
19847;DHT22;10084;50.518;8.588;2022-10-16T16:19:03;19.40;66.40
19847;DHT22;10084;50.518;8.588;2022-10-16T16:21:28;19.30;66.70
19847;DHT22;10084;50.518;8.588;2022-10-16T16:23:54;19.20;66.80
19847;DHT22;10084;50.518;8.588;2022-10-16T16:26:30;19.10;67.00
19847;DHT22;10084;50.518;8.588;2022-10-16T16:29:02;19.00;67.20
19847;DHT22;10084;50.518;8.588;2022-10-16T16:31:30;19.00;67.50
19847;DHT22;10084;50.518;8.588;2022-10-16T16:33:57;18.90;67.70
19847;DHT22;10084;50.518;8.588;2022-10-16T16:36:24;18.90;67.80
19847;DHT22;10084;50.518;8.588;2022-10-16T16:38:50;18.80;68.00
19847;DHT22;10084;50.518;8.588;2022-10-16T16:41:22;18.80;68.20
19847;DHT22;10084;50.518;8.588;2022-10-16T16:43:48;18.80;68.30
19847;DHT22;10084;50.518;8.588;2022-10-16T16:46:17;18.70;68.40
19847;DHT22;10084;50.518;8.588;2022-10-16T16:48:44;18.70;68.60
19847;DHT22;10084;50.518;8.588;2022-10-16T16:51:12;18.60;68.80
19847;DHT22;10084;50.518;8.588;2022-10-16T16:53:45;18.60;69.00
19847;DHT22;10084;50.518;8.588;2022-10-16T16:56:11;18.50;69.10
19847;DHT22;10084;50.518;8.588;2022-10-16T16:58:37;18.50;69.30
19847;DHT22;10084;50.518;8.588;2022-10-16T17:01:03;18.50;69.50
19847;DHT22;10084;50.518;8.588;2022-10-16T17:03:29;18.40;69.60
19847;DHT22;10084;50.518;8.588;2022-10-16T17:06:14;18.40;69.70
19847;DHT22;10084;50.518;8.588;2022-10-16T17:08:40;18.40;69.90
19847;DHT22;10084;50.518;8.588;2022-10-16T17:11:11;18.40;69.90
19847;DHT22;10084;50.518;8.588;2022-10-16T17:13:37;18.40;70.00
19847;DHT22;10084;50.518;8.588;2022-10-16T17:16:04;18.40;70.00
19847;DHT22;10084;50.518;8.588;2022-10-16T17:18:31;18.40;70.10
19847;DHT22;10084;50.518;8.588;2022-10-16T17:21:01;18.40;70.20
19847;DHT22;10084;50.518;8.588;2022-10-16T17:23:27;18.40;70.30
19847;DHT22;10084;50.518;8.588;2022-10-16T17:25:53;18.40;70.40
19847;DHT22;10084;50.518;8.588;2022-10-16T17:28:19;18.40;70.40